Flight Track Log - Related Links

Times and Time Zones

All times are in EDT time to prevent confusion due to time zone crossing. See the TCF3494 flight status page for this flight to view local times or setup timezone preferences in your user account.

Time Position Orientation Groundspeed Altitude Reporting Facility
EDT Latitude Longitude Course Direction KTS MPH feet Rate Location/Type
Tue 08:05:43 PM 42.0000 -87.8833 90° East 147 169 1,800  Level Chicago TRACON
Tue 08:06:43 PM 42.0000 -87.8167 90° East 182 209 3,500 1,568 Climbing Chicago TRACON
Tue 08:07:11 PM 42.0069 -87.8008 59° Northeast 182 209 4,100 1,955 Climbing Chicago Center
Tue 08:08:12 PM 42.0128 -87.7089 85° East 228 262 6,400 2,829 Climbing Chicago Center
Tue 08:09:14 PM 41.9992 -87.5797 98° East 286 329 9,900 3,097 Climbing Chicago Center
Tue 08:10:16 PM 41.9867 -87.4597 98° East 316 364 12,800 2,565 Climbing Chicago Center
Tue 08:11:00 PM 41.9333 -86.8225 90° East  Level FlightAware Approximate
Tue 08:11:18 PM 41.9736 -87.3319 98° East 341 392 15,200  Level Chicago Center
Tue 08:12:20 PM 41.9592 -87.1983 98° East 359 413 17,800 2,419 Climbing Chicago Center
Tue 08:13:22 PM 41.9456 -87.0608 98° East 371 427 20,200 1,887 Climbing Chicago Center
Tue 08:14:24 PM 41.9483 -86.9125 89° East 398 458 21,700 1,355 Climbing Chicago Center
Tue 08:15:26 PM 41.9497 -86.7247 89° East 418 481 23,000 1,403 Climbing Chicago Center
Tue 08:16:28 PM 41.9519 -86.5797 89° East 423 487 24,600 1,548 Climbing Chicago Center
Tue 08:17:30 PM 41.9539 -86.4178 89° East 432 497 26,200 1,161 Climbing Chicago Center
Tue 08:18:32 PM 41.9553 -86.2525 89° East 443 510 27,000 387 Climbing Chicago Center
Tue 08:19:34 PM 41.9408 -86.0556 96° East 443 510 27,000 726 Level Chicago Center
Tue 08:20:36 PM 41.9250 -85.8883 97° East 449 517 28,500 1,355 Climbing Chicago Center
Tue 08:21:38 PM 41.9097 -85.7197 97° East 454 522 29,800 1,161 Climbing Chicago Center
Tue 08:22:40 PM 41.8928 -85.5461 97° East 464 534 30,900 1,113 Climbing Chicago Center
Tue 08:23:42 PM 41.8764 -85.3697 97° East 470 541 32,100 919 Climbing Chicago Center
Tue 08:24:44 PM 41.8589 -85.1911 97° East 475 547 32,800 480 Climbing Chicago Center
Tue 08:25:47 PM 41.8394 -85.0100 98° East 483 556 33,100 720 Climbing Chicago Center
Tue 08:26:49 PM 41.8208 -84.8253 98° East 496 571 34,300 919 Climbing Chicago Center
Tue 08:27:51 PM 41.7978 -84.6092 98° East 489 563 35,000 48 Climbing Chicago Center
Tue 08:28:53 PM 41.7794 -84.4267 98° East 493 567 34,400 -968 Descending Chicago Center
Tue 08:29:55 PM 41.7772 -84.2453 91° East 489 563 33,000 -677 Descending Chicago Center
Tue 08:30:57 PM 41.7742 -84.0497 91° East 482 555 33,000  Level Cleveland Center
Tue 08:31:57 PM 41.7711 -83.8658 91° East 482 555 33,000  Level Cleveland Center
Tue 08:32:57 PM 41.7700 -83.6792 90° East 487 560 33,000  Level Cleveland Center
Tue 08:33:57 PM 41.7622 -83.4978 93° East 487 560 33,000  Level Cleveland Center
Tue 08:34:57 PM 41.7439 -83.3161 98° East 492 566 33,000  Level Cleveland Center
Tue 08:35:57 PM 41.7272 -83.1344 97° East 492 566 33,000  Level Cleveland Center
Tue 08:36:57 PM 41.7083 -82.9531 98° East 492 566 33,000  Level Cleveland Center
Tue 08:37:57 PM 41.6911 -82.7717 97° East 492 566 33,000  Level Cleveland Center
Tue 08:38:57 PM 41.6714 -82.5903 98° East 492 566 33,000  Level Cleveland Center
Tue 08:39:57 PM 41.6536 -82.4089 97° East 492 566 33,000  Level Cleveland Center
Tue 08:40:57 PM 41.6356 -82.2278 98° East 487 560 33,000  Level Cleveland Center
Tue 08:41:57 PM 41.6150 -82.0439 98° East 487 560 33,000  Level Cleveland Center
Tue 08:42:57 PM 41.5964 -81.8631 98° East 487 560 33,000  Level Cleveland Center
Tue 08:43:57 PM 41.5753 -81.6767 99° East 487 560 33,000  Level Cleveland Center
Tue 08:44:57 PM 41.5561 -81.4933 98° East 492 566 33,000  Level Cleveland Center
Tue 08:45:57 PM 41.5364 -81.3322 99° East 498 573 33,000  Level Cleveland Center
Tue 08:46:57 PM 41.5144 -81.1517 99° East 498 573 33,000  Level Cleveland Center
Tue 08:47:57 PM 41.4986 -80.9686 97° East 498 573 33,000  Level Cleveland Center
Tue 08:48:57 PM 41.4825 -80.7883 97° East 498 573 33,000  Level Cleveland Center
Tue 08:49:57 PM 41.4639 -80.5914 97° East 493 567 33,000  Level Cleveland Center
Tue 08:50:57 PM 41.4492 -80.4114 96° East 493 567 33,000  Level Cleveland Center
Tue 08:51:57 PM 41.4342 -80.2453 97° East 493 567 33,000  Level Cleveland Center
Tue 08:52:57 PM 41.4189 -80.0681 97° East 488 562 33,000  Level Cleveland Center
Tue 08:53:57 PM 41.3969 -79.8717 98° East 488 562 33,000  Level Cleveland Center
Tue 08:54:57 PM 41.3792 -79.6919 97° East 488 562 33,000  Level Cleveland Center
Tue 08:55:57 PM 41.3631 -79.5264 97° East 494 568 33,000  Level Cleveland Center
Tue 08:56:57 PM 41.3467 -79.3439 97° East 494 568 33,000  Level Cleveland Center
Tue 08:57:57 PM 41.3258 -79.1647 99° East 494 568 33,000  Level Cleveland Center
Tue 08:58:57 PM 41.3069 -78.9853 98° East 494 568 33,000  Level Cleveland Center
Tue 08:59:57 PM 41.2875 -78.8036 98° East 494 568 33,000  Level Cleveland Center
Tue 09:00:57 PM 41.2700 -78.6244 97° East 494 568 33,000  Level Cleveland Center
Tue 09:01:57 PM 41.2481 -78.4428 99° East 494 568 33,000  Level Cleveland Center
Tue 09:03:04 PM 41.2261 -78.2392 98° East 498 573 33,000  Level New York Center
Tue 09:04:05 PM 41.2039 -78.0600 99° East 498 573 33,000  Level New York Center
Tue 09:05:05 PM 41.1814 -77.8783 99° East 493 567 33,000 -99 Level New York Center
Tue 09:06:06 PM 41.1589 -77.6994 99° East 488 562 32,800 -1,091 Descending New York Center
Tue 09:07:06 PM 41.1358 -77.5181 100° East 488 562 30,800 -1,949 Descending New York Center
Tue 09:08:03 PM 41.1125 -77.3394 100° East 488 562 29,000 -1,795 Descending New York Center
Tue 09:09:03 PM 41.0908 -77.1667 99° East 488 562 27,300 -1,636 Descending New York Center
Tue 09:10:04 PM 41.0664 -76.9992 101° East 482 555 25,700 -1,610 Descending New York Center
Tue 09:11:06 PM 41.0458 -76.8322 99° East 465 535 24,000 -1,574 Descending New York Center
Tue 09:12:06 PM 41.0206 -76.6731 102° East 453 521 22,500 -1,350 Descending New York Center
Tue 09:13:06 PM 40.9853 -76.4994 105° East 448 516 21,300 -1,576 Descending New York Center
Tue 09:14:04 PM 40.9500 -76.3675 109° East 438 504 19,400 -1,765 Descending New York Center
Tue 09:15:05 PM 40.9153 -76.2189 107° East 431 496 17,800 -1,623 Descending New York Center
Tue 09:16:06 PM 40.8764 -76.0622 108° East 418 481 16,100 -1,563 Descending New York Center
Tue 09:17:04 PM 40.8431 -75.9225 107° East 413 475 14,700 -1,424 Descending New York Center
Tue 09:18:04 PM 40.8092 -75.7883 108° East 400 460 13,300 -843 Descending New York Center
Tue 09:19:05 PM 40.7772 -75.6572 108° East 386 444 13,000 -148 Descending New York Center
Tue 09:20:06 PM 40.7467 -75.5372 109° East 374 430 13,000  Level New York Center
Tue 09:21:06 PM 40.7167 -75.4036 106° East 374 430 13,000  Level New York Center
Tue 09:22:04 PM 40.6883 -75.2731 106° East 374 430 13,000 -712 Level New York Center
Tue 09:23:04 PM 40.6578 -75.1453 107° East 369 425 11,600 -1,279 Descending New York Center
Tue 09:24:06 PM 40.5925 -75.0481 131° Southeast 363 418 10,400 -738 Descending New York Center
Tue 09:25:06 PM 40.5428 -74.9222 117° Southeast 352 405 10,100 -296 Descending New York Center
Tue 09:25:27 PM 40.5333 -74.8667 103° East 353 406 10,000 -80 Descending New York TRACON
Tue 09:26:21 PM 40.5000 -74.7667 114° Southeast 353 406 10,000 -333 Level New York TRACON
Tue 09:27:15 PM 40.4667 -74.6667 114° Southeast 311 358 9,400 -474 Descending New York TRACON
Tue 09:28:15 PM 40.4333 -74.5667 114° Southeast 292 336 9,100 -684 Descending New York TRACON
Tue 09:29:09 PM 40.4500 -74.4833 75° East 289 333 8,100 -526 Descending New York TRACON
Tue 09:30:09 PM 40.4667 -74.3833 78° East 286 329 8,100 -476 Level New York TRACON
Tue 09:31:15 PM 40.5000 -74.2833 66° East 261 300 7,100 -571 Descending New York TRACON
Tue 09:32:15 PM 40.5167 -74.2000 75° East 200 230 6,900 -750 Descending New York TRACON
Tue 09:33:15 PM 40.5333 -74.1333 72° East 192 221 5,600 -857 Descending New York TRACON
Tue 09:34:21 PM 40.5500 -74.0667 72° East 201 231 5,100 -667 Descending New York TRACON
Tue 09:35:21 PM 40.6000 -74.0167 37° Northeast 187 215 4,200 -1,150 Descending New York TRACON
Tue 09:36:21 PM 40.6500 -73.9833 27° Northeast 186 214 2,800 -800 Descending New York TRACON
Tue 09:37:21 PM 40.6833 -73.9500 37° Northeast 182 209 2,600 -400 Descending New York TRACON
Tue 09:38:21 PM 40.7167 -73.9000 49° Northeast 166 191 2,000 -684 Descending New York TRACON
Tue 09:39:15 PM 40.7333 -73.8667 57° Northeast 138 159 1,300 -778 Descending New York TRACON

Login

Don't have an account? Register now (free) for customized features, flight alerts, and more!